EIKH weather

Kildare Aerodrome
Kilrush, County Kildare, Ireland

Public forecast

Using degrees Celsius for public forecast. Weather courtesy of forecast.io.

METAR (pilot weather report)

Closest report is Casement Air Base, 20.4 nm (37.8 km) NE. Retrieved 2019/06/25 16:00 UTC (54 minutes ago):

EIME 251600Z 02007KT 340V050 9999 FEW012 BKN015 17/14 Q1023

TAF (pilot weather forecast)

Closest forecast is Dublin Airport, 30.1 nm (55.7 km) NE. Retrieved 2019/06/25 12:00 UTC (5 hours ago):

TAF COR EIDW 251154Z 2512/2612 05011KT 9999 SCT012 BKN025 TEMPO 2512/2516 BKN012 TEMPO 2516/2519 BKN012 BECMG 2519/2521 03005KT TEMPO 2523/2606 5000 BR SCT012 PROB30 TEMPO 2600/2605 3000 BECMG 2605/2607 03010KT PROB40 TEMPO 2606/2608 BKN012 BECMG 2610/2612 06011KT